createdAt,value
2018-07-02T00:00:37.208Z,22.90
2018-07-02T00:03:06.480Z,22.90
2018-07-02T00:05:46.452Z,22.90
2018-07-02T00:08:15.718Z,22.90
2018-07-02T00:10:44.968Z,22.90
2018-07-02T00:13:14.305Z,22.90
2018-07-02T00:15:43.568Z,22.90
2018-07-02T00:18:12.993Z,22.90
2018-07-02T00:20:42.283Z,22.90
2018-07-02T00:23:11.660Z,22.80
2018-07-02T00:25:40.903Z,22.80
2018-07-02T00:28:10.121Z,22.80
2018-07-02T00:30:39.401Z,22.80
2018-07-02T00:33:08.627Z,22.80
2018-07-02T00:35:37.828Z,22.80
2018-07-02T00:38:07.054Z,22.80
2018-07-02T00:43:05.049Z,22.80
2018-07-02T00:45:34.308Z,22.80
2018-07-02T00:48:03.652Z,22.80
2018-07-02T00:50:32.912Z,22.80
2018-07-02T00:53:02.139Z,22.70
2018-07-02T00:55:31.364Z,22.80
2018-07-02T00:58:00.604Z,22.70
2018-07-02T01:00:29.833Z,22.70
2018-07-02T01:02:59.250Z,22.70
2018-07-02T01:05:28.444Z,22.60
2018-07-02T01:07:57.838Z,22.70
2018-07-02T01:10:27.035Z,22.60
2018-07-02T01:12:56.509Z,22.50
2018-07-02T01:15:25.743Z,22.40
2018-07-02T01:17:55.040Z,22.40
2018-07-02T01:20:24.313Z,22.40
2018-07-02T01:22:53.592Z,22.30
2018-07-02T01:25:22.960Z,22.30
2018-07-02T01:27:52.184Z,22.20
2018-07-02T01:30:21.672Z,22.20
2018-07-02T01:32:51.091Z,22.20
2018-07-02T01:35:20.325Z,22.10
2018-07-02T01:37:49.564Z,22.10
2018-07-02T01:40:18.792Z,22.00
2018-07-02T01:42:48.040Z,22.00
2018-07-02T01:45:17.248Z,22.00
2018-07-02T01:47:46.452Z,22.00
2018-07-02T01:50:15.745Z,22.00
2018-07-02T01:52:45.057Z,22.00
2018-07-02T01:55:14.411Z,22.00
2018-07-02T01:57:43.685Z,22.00
2018-07-02T02:00:12.909Z,22.00
2018-07-02T02:02:42.153Z,21.90
2018-07-02T02:05:11.416Z,21.90
2018-07-02T02:07:40.641Z,21.90
2018-07-02T02:10:09.906Z,21.90
2018-07-02T02:12:39.179Z,21.90
2018-07-02T02:15:08.740Z,21.90
2018-07-02T02:20:07.028Z,21.90
2018-07-02T02:22:36.543Z,21.80
2018-07-02T02:25:06.509Z,21.80
2018-07-02T02:27:35.770Z,21.80
2018-07-02T02:30:05.716Z,21.70
2018-07-02T02:32:35.059Z,21.70
2018-07-02T02:35:04.352Z,21.60
2018-07-02T02:37:33.616Z,21.60
2018-07-02T02:40:02.988Z,21.50
2018-07-02T02:42:32.534Z,21.50
2018-07-02T02:45:01.759Z,21.50
2018-07-02T02:47:30.993Z,21.50
2018-07-02T02:50:00.246Z,21.40
2018-07-02T02:52:29.557Z,21.40
2018-07-02T02:54:58.827Z,21.40
2018-07-02T02:57:28.195Z,21.30
2018-07-02T02:59:57.484Z,21.30
2018-07-02T03:02:26.982Z,21.20
2018-07-02T03:04:56.204Z,21.20
2018-07-02T03:07:25.516Z,21.20
2018-07-02T03:09:54.760Z,21.20
2018-07-02T03:12:24.028Z,21.20
2018-07-02T03:14:53.281Z,21.20
2018-07-02T03:17:22.492Z,21.10
2018-07-02T03:19:51.755Z,21.10
2018-07-02T03:22:20.993Z,21.20
2018-07-02T03:24:50.352Z,21.20
2018-07-02T03:27:19.686Z,21.10
2018-07-02T03:29:48.961Z,21.10
2018-07-02T03:32:18.228Z,21.10
2018-07-02T03:34:47.453Z,21.10
2018-07-02T03:37:16.680Z,21.10
2018-07-02T03:39:45.895Z,21.10
2018-07-02T03:42:15.247Z,21.00
2018-07-02T03:44:44.452Z,21.00
2018-07-02T03:47:13.680Z,21.00
2018-07-02T03:49:42.882Z,20.90
2018-07-02T03:52:12.089Z,20.90
2018-07-02T03:54:41.315Z,20.90
2018-07-02T03:57:10.517Z,20.90
2018-07-02T03:59:40.080Z,20.80
2018-07-02T04:02:09.423Z,20.80
2018-07-02T04:04:38.675Z,20.80
2018-07-02T04:07:07.979Z,20.80
2018-07-02T04:09:37.220Z,20.70
2018-07-02T04:12:06.524Z,20.80
2018-07-02T04:14:35.753Z,20.70
2018-07-02T04:17:04.951Z,20.70
2018-07-02T04:19:34.173Z,20.60
2018-07-02T04:22:03.648Z,20.70
2018-07-02T04:24:32.858Z,20.70
2018-07-02T04:27:02.085Z,20.70
2018-07-02T04:29:31.327Z,20.70
2018-07-02T04:32:00.733Z,20.70
2018-07-02T04:34:29.956Z,20.70
2018-07-02T04:36:59.224Z,20.70
2018-07-02T04:39:28.445Z,20.70
2018-07-02T04:41:57.685Z,20.70
2018-07-02T04:44:26.916Z,20.70
2018-07-02T04:46:56.178Z,20.70
2018-07-02T04:49:26.236Z,20.70
2018-07-02T04:51:55.773Z,20.70
2018-07-02T04:54:25.000Z,20.80
2018-07-02T04:56:54.238Z,20.80
2018-07-02T04:59:23.597Z,20.80
2018-07-02T05:01:52.941Z,20.80
2018-07-02T05:04:22.229Z,20.90
2018-07-02T05:06:51.816Z,20.80
2018-07-02T05:09:21.109Z,20.90
2018-07-02T05:11:50.439Z,20.90
2018-07-02T05:14:19.649Z,21.00
2018-07-02T05:16:48.900Z,21.00
2018-07-02T05:19:18.175Z,21.00
2018-07-02T05:21:47.481Z,21.00
2018-07-02T05:24:16.747Z,21.00
2018-07-02T05:26:46.000Z,21.10
2018-07-02T05:29:15.257Z,21.10
2018-07-02T05:31:44.587Z,21.20
2018-07-02T05:34:13.873Z,21.20
2018-07-02T05:36:43.148Z,21.20
2018-07-02T05:39:12.692Z,21.20
2018-07-02T05:41:42.043Z,21.30
2018-07-02T05:44:11.385Z,21.30
2018-07-02T05:46:40.720Z,21.30
2018-07-02T05:49:10.019Z,21.40
2018-07-02T05:51:39.269Z,21.40
2018-07-02T05:54:08.597Z,21.40
2018-07-02T05:56:37.989Z,21.40
2018-07-02T05:59:07.285Z,21.40
2018-07-02T06:01:36.602Z,21.40
2018-07-02T06:04:05.888Z,21.50
2018-07-02T06:06:35.127Z,21.50
2018-07-02T06:09:06.636Z,21.50
2018-07-02T06:11:36.348Z,21.60
2018-07-02T06:14:05.634Z,21.60
2018-07-02T06:16:35.011Z,21.60
2018-07-02T06:19:04.300Z,21.70
2018-07-02T06:21:33.681Z,21.70
2018-07-02T06:24:03.006Z,21.80
2018-07-02T06:26:32.384Z,21.80
2018-07-02T06:29:01.706Z,21.80
2018-07-02T06:31:31.117Z,21.80
2018-07-02T06:34:00.437Z,21.90
2018-07-02T06:36:29.801Z,21.90
2018-07-02T06:38:59.067Z,21.90
2018-07-02T06:41:28.509Z,22.00
2018-07-02T06:43:58.147Z,22.00
2018-07-02T06:46:27.448Z,22.00
2018-07-02T06:48:56.801Z,22.00
2018-07-02T06:51:28.364Z,22.10
2018-07-02T06:53:57.898Z,22.10
2018-07-02T06:56:27.253Z,22.20
2018-07-02T06:58:56.604Z,22.20
2018-07-02T07:03:54.687Z,22.20
2018-07-02T07:08:52.818Z,22.20
2018-07-02T07:11:22.272Z,22.30
2018-07-02T07:13:55.101Z,22.30
2018-07-02T07:16:25.071Z,22.30
2018-07-02T07:18:54.368Z,22.30
2018-07-02T07:21:23.800Z,22.30
2018-07-02T07:23:53.035Z,22.40
2018-07-02T07:26:22.285Z,22.40
2018-07-02T07:28:53.092Z,22.40
2018-07-02T07:31:22.639Z,22.40
2018-07-02T07:33:51.975Z,22.40
2018-07-02T07:36:21.211Z,22.40
2018-07-02T07:38:50.514Z,22.40
2018-07-02T07:41:19.914Z,22.50
2018-07-02T07:43:49.223Z,22.50
2018-07-02T07:46:18.544Z,22.50
2018-07-02T07:48:48.174Z,22.50
2018-07-02T07:51:17.557Z,22.50
2018-07-02T07:53:46.881Z,22.50
2018-07-02T07:56:16.194Z,22.50
2018-07-02T07:58:45.518Z,22.50
2018-07-02T08:01:14.944Z,22.60
2018-07-02T08:03:44.401Z,22.60
2018-07-02T08:06:13.667Z,22.60
2018-07-02T08:08:42.973Z,22.60
2018-07-02T08:11:12.327Z,22.60
2018-07-02T08:13:43.493Z,22.60
2018-07-02T08:16:12.854Z,22.60
2018-07-02T08:18:42.242Z,22.60
2018-07-02T08:21:12.273Z,22.70
2018-07-02T08:23:41.560Z,22.70
2018-07-02T08:26:10.956Z,22.70
2018-07-02T08:28:40.245Z,22.70
2018-07-02T08:31:09.573Z,22.70
2018-07-02T08:33:38.812Z,22.70
2018-07-02T08:36:08.196Z,22.80
2018-07-02T08:38:37.443Z,22.80
2018-07-02T08:41:06.809Z,22.80
2018-07-02T08:43:36.073Z,22.80
2018-07-02T08:46:05.348Z,22.80
2018-07-02T08:48:34.636Z,22.80
2018-07-02T08:51:04.010Z,22.80
2018-07-02T08:56:02.016Z,22.80
2018-07-02T08:58:31.357Z,22.90
2018-07-02T09:01:00.725Z,22.90
2018-07-02T09:03:29.962Z,22.90
2018-07-02T09:05:59.254Z,22.90
2018-07-02T09:08:28.618Z,22.90
2018-07-02T09:10:57.958Z,22.90
2018-07-02T09:13:27.189Z,22.90
2018-07-02T09:15:56.484Z,22.90
2018-07-02T09:18:25.989Z,22.90
2018-07-02T09:20:55.292Z,23.00
2018-07-02T09:23:24.538Z,23.00
2018-07-02T09:25:53.814Z,23.00
2018-07-02T09:28:23.158Z,23.00
2018-07-02T09:30:52.493Z,23.00
2018-07-02T09:33:21.749Z,23.00
2018-07-02T09:35:51.040Z,23.00
2018-07-02T09:38:20.351Z,23.00
2018-07-02T09:40:49.692Z,23.00
2018-07-02T09:43:18.994Z,23.00
2018-07-02T09:45:48.311Z,23.00
2018-07-02T09:48:17.596Z,23.00
2018-07-02T09:50:46.921Z,23.10
2018-07-02T09:53:16.279Z,23.10
2018-07-02T09:55:45.564Z,23.20
2018-07-02T09:58:14.902Z,23.20
2018-07-02T10:00:44.297Z,23.20
2018-07-02T10:03:13.580Z,23.20
2018-07-02T10:05:42.880Z,23.20
2018-07-02T10:08:12.277Z,23.20
2018-07-02T10:10:41.549Z,23.20
2018-07-02T10:13:10.816Z,23.20
2018-07-02T10:15:40.081Z,23.20
2018-07-02T10:18:09.348Z,23.20
2018-07-02T10:20:38.687Z,23.20
2018-07-02T10:23:08.021Z,23.20
2018-07-02T10:25:37.389Z,23.20
2018-07-02T10:28:06.631Z,23.30
2018-07-02T10:30:35.952Z,23.30
2018-07-02T10:33:05.289Z,23.20
2018-07-02T10:35:34.585Z,23.30
2018-07-02T10:38:03.887Z,23.30
2018-07-02T10:40:33.174Z,23.30
2018-07-02T10:43:02.437Z,23.30
2018-07-02T10:45:31.699Z,23.30
2018-07-02T10:48:00.985Z,23.30
2018-07-02T10:50:30.315Z,23.30
2018-07-02T10:52:59.623Z,23.30
2018-07-02T10:55:28.983Z,23.30
2018-07-02T10:57:58.314Z,23.30
2018-07-02T11:00:27.548Z,23.30
2018-07-02T11:02:57.376Z,23.40
2018-07-02T11:05:26.696Z,23.30
2018-07-02T11:07:56.055Z,23.40
2018-07-02T11:10:25.417Z,23.40
2018-07-02T11:12:54.703Z,23.40
2018-07-02T11:15:23.952Z,23.40
2018-07-02T11:20:21.993Z,23.40
2018-07-02T11:22:51.337Z,23.40
2018-07-02T11:27:49.319Z,23.40
2018-07-02T11:30:18.723Z,23.40
2018-07-02T11:32:48.161Z,23.40
2018-07-02T11:35:17.478Z,23.40
2018-07-02T11:37:46.716Z,23.40
2018-07-02T11:40:15.960Z,23.50
2018-07-02T11:42:45.283Z,23.50
2018-07-02T11:45:14.525Z,23.50
2018-07-02T11:47:43.813Z,23.50
2018-07-02T11:50:13.079Z,23.50
2018-07-02T11:52:42.389Z,23.50
2018-07-02T11:55:11.643Z,23.50
2018-07-02T11:57:40.893Z,23.50
2018-07-02T12:00:10.400Z,23.50
2018-07-02T12:02:40.201Z,23.50
2018-07-02T12:05:09.429Z,23.50
2018-07-02T12:07:38.737Z,23.50
2018-07-02T12:10:08.200Z,23.50
2018-07-02T12:12:37.610Z,23.50
2018-07-02T12:15:06.931Z,23.50
2018-07-02T12:17:36.352Z,23.50
2018-07-02T12:20:06.020Z,23.50
2018-07-02T12:22:35.401Z,23.60
2018-07-02T12:25:04.721Z,23.60
2018-07-02T12:27:34.040Z,23.60
2018-07-02T12:30:03.328Z,23.60
2018-07-02T12:32:32.797Z,23.70
2018-07-02T12:35:02.133Z,23.70
2018-07-02T12:37:31.473Z,23.70
2018-07-02T12:40:00.815Z,23.70
2018-07-02T12:42:30.179Z,23.70
2018-07-02T12:44:59.456Z,23.70
2018-07-02T12:47:28.733Z,23.70
2018-07-02T12:49:58.022Z,23.70
2018-07-02T12:52:27.356Z,23.80
2018-07-02T12:54:56.641Z,23.80
2018-07-02T12:57:25.946Z,23.80
2018-07-02T12:59:55.295Z,23.80
2018-07-02T13:02:24.720Z,23.90
2018-07-02T13:04:54.692Z,23.90
2018-07-02T13:09:52.923Z,23.90
2018-07-02T13:12:22.834Z,23.90
2018-07-02T13:14:52.300Z,23.90
2018-07-02T13:17:21.588Z,23.90
2018-07-02T13:19:50.924Z,24.00
2018-07-02T13:22:20.385Z,24.00
2018-07-02T13:24:49.678Z,24.00
2018-07-02T13:27:18.935Z,24.00
2018-07-02T13:29:48.209Z,24.00
2018-07-02T13:32:17.615Z,24.00
2018-07-02T13:34:46.973Z,24.00
2018-07-02T13:37:16.580Z,24.00
2018-07-02T13:39:45.878Z,24.00
2018-07-02T13:42:15.246Z,24.00
2018-07-02T13:44:45.032Z,24.00
2018-07-02T13:47:14.299Z,24.00
2018-07-02T13:49:43.604Z,24.00
2018-07-02T13:52:12.921Z,24.00
2018-07-02T13:54:42.244Z,24.00
2018-07-02T13:57:11.581Z,24.00
2018-07-02T13:59:40.919Z,24.00
2018-07-02T14:02:10.232Z,24.00
2018-07-02T14:04:39.564Z,24.00
2018-07-02T14:07:08.826Z,24.00
2018-07-02T14:09:38.218Z,24.10
2018-07-02T14:12:07.580Z,24.10
2018-07-02T14:14:36.866Z,24.10
2018-07-02T14:17:06.437Z,24.10
2018-07-02T14:19:35.710Z,24.10
2018-07-02T14:22:05.033Z,24.10
2018-07-02T14:24:34.288Z,24.10
2018-07-02T14:27:03.521Z,24.10
2018-07-02T14:29:32.780Z,24.10
2018-07-02T14:32:02.121Z,24.10
2018-07-02T14:34:31.458Z,24.10
2018-07-02T14:37:00.761Z,24.10
2018-07-02T14:39:30.056Z,24.10
2018-07-02T14:41:59.483Z,24.10
2018-07-02T14:44:28.791Z,24.10
2018-07-02T14:46:58.036Z,24.10
2018-07-02T14:49:27.805Z,24.10
2018-07-02T14:51:57.137Z,24.10
2018-07-02T14:54:26.371Z,24.10
2018-07-02T14:56:55.624Z,24.10
2018-07-02T14:59:24.908Z,24.10
2018-07-02T15:01:54.308Z,24.10
2018-07-02T15:04:23.576Z,24.10
2018-07-02T15:09:21.552Z,24.10
2018-07-02T15:11:51.147Z,24.10
2018-07-02T15:14:20.519Z,24.10
2018-07-02T15:16:53.267Z,24.10
2018-07-02T15:19:22.654Z,24.10
2018-07-02T15:21:52.068Z,24.10
2018-07-02T15:24:21.334Z,24.10
2018-07-02T15:26:50.612Z,24.10
2018-07-02T15:29:19.880Z,24.10
2018-07-02T15:31:50.249Z,24.10
2018-07-02T15:34:19.492Z,24.10
2018-07-02T15:36:48.767Z,24.10
2018-07-02T15:39:18.123Z,24.10
2018-07-02T15:41:47.569Z,24.10
2018-07-02T15:44:16.744Z,24.10
2018-07-02T15:46:46.114Z,24.20
2018-07-02T15:49:15.367Z,24.20
2018-07-02T15:51:45.147Z,24.20
2018-07-02T15:54:15.557Z,24.20
2018-07-02T15:56:44.885Z,24.20
2018-07-02T15:59:14.185Z,24.20
2018-07-02T16:01:43.509Z,24.20
2018-07-02T16:04:12.825Z,24.20
2018-07-02T16:06:42.101Z,24.20
2018-07-02T16:09:12.446Z,24.20
2018-07-02T16:11:41.864Z,24.20
2018-07-02T16:14:11.138Z,24.20
2018-07-02T16:16:40.424Z,24.20
2018-07-02T16:19:09.780Z,24.20
2018-07-02T16:21:39.122Z,24.20
2018-07-02T16:24:09.250Z,24.20
2018-07-02T16:26:39.013Z,24.20
2018-07-02T16:29:08.297Z,24.20
2018-07-02T16:31:37.671Z,24.30
2018-07-02T16:34:09.441Z,24.30
2018-07-02T16:39:09.749Z,24.30
2018-07-02T16:41:39.190Z,24.20
2018-07-02T16:44:08.901Z,24.20
2018-07-02T16:46:38.210Z,24.30
2018-07-02T16:49:07.457Z,24.30
2018-07-02T16:51:36.899Z,24.30
2018-07-02T16:54:06.160Z,24.20
2018-07-02T16:56:38.779Z,24.30
2018-07-02T16:59:08.210Z,24.30
2018-07-02T17:01:37.569Z,24.30
2018-07-02T17:04:07.022Z,24.30
2018-07-02T17:06:36.337Z,24.30
2018-07-02T17:09:09.556Z,24.30
2018-07-02T17:11:39.685Z,24.30
2018-07-02T17:14:09.305Z,24.30
2018-07-02T17:16:38.987Z,24.30
2018-07-02T17:19:08.326Z,24.30
2018-07-02T17:21:37.815Z,24.30
2018-07-02T17:24:07.261Z,24.30
2018-07-02T17:26:36.485Z,24.30
2018-07-02T17:29:05.759Z,24.30
2018-07-02T17:31:35.259Z,24.30
2018-07-02T17:34:04.520Z,24.30
2018-07-02T17:36:33.862Z,24.30
2018-07-02T17:39:03.169Z,24.30
2018-07-02T17:41:32.511Z,24.30
2018-07-02T17:44:01.817Z,24.30
2018-07-02T17:46:31.105Z,24.30
2018-07-02T17:49:00.397Z,24.30
2018-07-02T17:51:29.800Z,24.30
2018-07-02T17:53:59.071Z,24.30
2018-07-02T17:56:28.295Z,24.30
2018-07-02T17:58:57.571Z,24.30
2018-07-02T18:01:26.893Z,24.30
2018-07-02T18:03:56.369Z,24.30
2018-07-02T18:06:25.629Z,24.30
2018-07-02T18:08:54.895Z,24.30
2018-07-02T18:11:24.220Z,24.30
2018-07-02T18:13:53.494Z,24.30
2018-07-02T18:16:22.749Z,24.30
2018-07-02T18:18:52.090Z,24.30
2018-07-02T18:21:21.343Z,24.30
2018-07-02T18:23:50.589Z,24.30
2018-07-02T18:26:19.954Z,24.30
2018-07-02T18:28:49.170Z,24.30
2018-07-02T18:31:18.557Z,24.30
2018-07-02T18:33:49.755Z,24.20
2018-07-02T18:36:19.121Z,24.30
2018-07-02T18:38:48.417Z,24.30
2018-07-02T18:41:17.779Z,24.30
2018-07-02T18:43:46.984Z,24.30
2018-07-02T18:46:16.277Z,24.30
2018-07-02T18:48:45.542Z,24.30
2018-07-02T18:51:14.880Z,24.30
2018-07-02T18:53:44.151Z,24.30
2018-07-02T18:56:13.425Z,24.30
2018-07-02T18:58:42.774Z,24.30
2018-07-02T19:01:12.081Z,24.30
2018-07-02T19:06:10.104Z,24.30
2018-07-02T19:08:39.709Z,24.30
2018-07-02T19:11:09.041Z,24.30
2018-07-02T19:13:38.287Z,24.30
2018-07-02T19:16:07.527Z,24.30
2018-07-02T19:18:36.793Z,24.30
2018-07-02T19:21:06.222Z,24.30
2018-07-02T19:23:35.470Z,24.30
2018-07-02T19:26:04.845Z,24.30
2018-07-02T19:28:34.213Z,24.30
2018-07-02T19:31:03.600Z,24.30
2018-07-02T19:33:32.902Z,24.30
2018-07-02T19:36:02.173Z,24.30
2018-07-02T19:38:31.462Z,24.30
2018-07-02T19:41:01.243Z,24.30
2018-07-02T19:43:30.495Z,24.30
2018-07-02T19:45:59.736Z,24.30
2018-07-02T19:48:28.957Z,24.30
2018-07-02T19:50:58.271Z,24.30
2018-07-02T19:53:27.496Z,24.20
2018-07-02T19:55:56.808Z,24.30
2018-07-02T19:58:26.101Z,24.30
2018-07-02T20:00:55.441Z,24.30
2018-07-02T20:03:24.800Z,24.30
2018-07-02T20:05:54.133Z,24.30
2018-07-02T20:08:23.392Z,24.30
2018-07-02T20:10:53.170Z,24.30
2018-07-02T20:13:22.499Z,24.30
2018-07-02T20:15:51.672Z,24.30
2018-07-02T20:18:20.876Z,24.30
2018-07-02T20:20:50.135Z,24.20
2018-07-02T20:23:19.337Z,24.20
2018-07-02T20:25:48.558Z,24.10
2018-07-02T20:28:17.758Z,24.10
2018-07-02T20:30:47.140Z,24.10
2018-07-02T20:33:17.304Z,24.10
2018-07-02T20:35:47.025Z,24.10
2018-07-02T20:38:16.485Z,24.10
2018-07-02T20:40:45.775Z,24.10
2018-07-02T20:43:15.028Z,24.20
2018-07-02T20:45:44.610Z,24.20
2018-07-02T20:48:13.796Z,24.10
2018-07-02T20:50:43.035Z,24.10
2018-07-02T20:53:12.237Z,24.10
2018-07-02T20:55:41.602Z,24.10
2018-07-02T20:58:10.799Z,24.10
2018-07-02T21:00:39.998Z,24.10
2018-07-02T21:03:09.202Z,24.10
2018-07-02T21:05:38.402Z,24.10
2018-07-02T21:08:07.693Z,24.10
2018-07-02T21:10:36.954Z,24.10
2018-07-02T21:13:06.128Z,24.10
2018-07-02T21:15:35.316Z,24.00
2018-07-02T21:18:04.628Z,24.00
2018-07-02T21:20:33.831Z,24.00
2018-07-02T21:23:03.168Z,23.90
2018-07-02T21:25:32.384Z,23.90
2018-07-02T21:28:01.582Z,23.90
2018-07-02T21:30:30.789Z,23.90
2018-07-02T21:33:00.013Z,23.90
2018-07-02T21:35:29.214Z,23.90
2018-07-02T21:37:58.450Z,23.90
2018-07-02T21:40:27.705Z,23.80
2018-07-02T21:42:56.970Z,23.80
2018-07-02T21:45:26.174Z,23.80
2018-07-02T21:47:55.368Z,23.70
2018-07-02T21:50:24.584Z,23.70
2018-07-02T21:52:53.800Z,23.70
2018-07-02T21:55:22.996Z,23.70
2018-07-02T21:57:52.187Z,23.60
2018-07-02T22:00:21.368Z,23.60
2018-07-02T22:02:50.616Z,23.60
2018-07-02T22:05:19.817Z,23.60
2018-07-02T22:07:49.093Z,23.60
2018-07-02T22:10:18.282Z,23.60
2018-07-02T22:12:47.597Z,23.60
2018-07-02T22:15:16.828Z,23.60
2018-07-02T22:17:46.010Z,23.60
2018-07-02T22:20:15.196Z,23.60
2018-07-02T22:22:44.397Z,23.60
2018-07-02T22:25:13.580Z,23.50
2018-07-02T22:27:42.748Z,23.50
2018-07-02T22:30:11.917Z,23.50
2018-07-02T22:32:41.174Z,23.50
2018-07-02T22:35:10.373Z,23.40
2018-07-02T22:37:39.570Z,23.40
2018-07-02T22:40:08.738Z,23.40
2018-07-02T22:42:38.065Z,23.40
2018-07-02T22:45:07.676Z,23.40
2018-07-02T22:47:36.916Z,23.40
2018-07-02T22:50:06.172Z,23.40
2018-07-02T22:52:35.417Z,23.40
2018-07-02T22:55:04.917Z,23.40
2018-07-02T22:57:34.117Z,23.40
2018-07-02T23:00:03.300Z,23.40
2018-07-02T23:02:32.571Z,23.40
2018-07-02T23:05:01.741Z,23.50
2018-07-02T23:07:30.939Z,23.40
2018-07-02T23:10:00.109Z,23.40
2018-07-02T23:12:29.360Z,23.30
2018-07-02T23:14:58.564Z,23.30
2018-07-02T23:17:27.910Z,23.30
2018-07-02T23:19:57.159Z,23.30
2018-07-02T23:22:31.220Z,23.30
2018-07-02T23:25:00.400Z,23.30
2018-07-02T23:29:58.404Z,23.30
2018-07-02T23:32:27.663Z,23.30
2018-07-02T23:34:56.848Z,23.30
2018-07-02T23:37:26.057Z,23.20
2018-07-02T23:39:55.244Z,23.20
2018-07-02T23:42:24.444Z,23.20
2018-07-02T23:44:53.653Z,23.20
2018-07-02T23:47:22.844Z,23.20
2018-07-02T23:49:52.089Z,23.20
2018-07-02T23:52:21.414Z,23.20
2018-07-02T23:54:50.620Z,23.10
2018-07-02T23:57:19.816Z,23.10
2018-07-02T23:59:49.189Z,23.10
